Time;durP1;ratioP1;P1;durP2;ratioP2;P2;SDS_P1;SDS_P2;PMS_P1;PMS_P2;Temp;Humidity;BMP_temperature;BMP_pressure;BME280_temperature;BME280_humidity;BME280_pressure;Samples;Min_cycle;Max_cycle;Signal;HPM_P1;HPM_P2
2023/10/07 00:01:07;;;;;;;7.38;1.60;;;;;;;8.05;100.00;100617.16;5002886;28;20048;-60
2023/10/07 00:03:38;;;;;;;6.18;1.58;;;;;;;8.12;100.00;100634.53;4992920;28;20131;-64
2023/10/07 00:06:11;;;;;;;8.55;1.83;;;;;;;8.13;100.00;100641.44;4994719;28;20057;-62
2023/10/07 00:08:41;;;;;;;9.15;1.70;;;;;;;8.16;100.00;100630.16;5002640;28;20145;-59
2023/10/07 00:11:12;;;;;;;8.40;1.60;;;;;;;8.15;100.00;100631.91;4991652;28;20103;-63
2023/10/07 00:13:44;;;;;;;6.32;1.30;;;;;;;8.00;100.00;100603.28;5003259;28;20053;-63
2023/10/07 00:16:18;;;;;;;5.97;1.27;;;;;;;8.17;100.00;100645.78;4992843;28;20057;-59
2023/10/07 00:18:48;;;;;;;5.50;1.20;;;;;;;8.19;100.00;100646.66;5002573;28;20046;-60
2023/10/07 00:25:01;;;;;;;8.70;1.73;;;;;;;8.25;100.00;100644.94;4986080;28;20171;-63
2023/10/07 00:27:38;;;;;;;7.35;1.42;;;;;;;8.24;100.00;100643.19;4992787;28;20053;-59
2023/10/07 00:30:13;;;;;;;7.90;1.75;;;;;;;8.27;100.00;100653.63;4998623;28;20054;-60
2023/10/07 00:32:46;;;;;;;9.00;1.63;;;;;;;8.26;100.00;100651.84;5001395;28;20058;-57
2023/10/07 00:35:19;;;;;;;11.40;1.60;;;;;;;8.28;100.00;100660.53;4989810;28;20056;-59
2023/10/07 00:37:49;;;;;;;11.15;1.75;;;;;;;8.28;100.00;100655.34;5001271;28;20614;-57
2023/10/07 00:40:31;;;;;;;8.95;1.88;;;;;;;8.29;100.00;100662.28;4990424;28;20137;-58
2023/10/07 00:43:07;;;;;;;11.30;1.40;;;;;;;8.30;100.00;100658.81;5000035;28;20643;-58
2023/10/07 00:45:38;;;;;;;10.45;1.67;;;;;;;8.30;100.00;100658.81;4991105;28;20055;-58
2023/10/07 00:48:11;;;;;;;5.88;1.38;;;;;;;8.30;100.00;100669.22;4999579;28;20057;-57
2023/10/07 00:50:42;;;;;;;4.47;1.10;;;;;;;8.31;100.00;100677.03;5002387;28;20061;-60
2023/10/07 00:53:13;;;;;;;8.57;1.60;;;;;;;8.32;100.00;100677.91;4991464;28;20362;-60
2023/10/07 00:55:46;;;;;;;8.85;1.45;;;;;;;8.34;100.00;100681.38;5001925;28;20053;-59
2023/10/07 00:58:20;;;;;;;8.23;1.50;;;;;;;8.34;100.00;100691.81;4991366;28;20735;-60
2023/10/07 01:00:55;;;;;;;4.55;1.13;;;;;;;8.35;100.00;100683.09;5001705;28;20144;-56
2023/10/07 01:03:47;;;;;;;9.30;1.38;;;;;;;8.35;100.00;100693.53;4991305;28;20186;-59
2023/10/07 01:06:25;;;;;;;9.00;1.75;;;;;;;8.36;100.00;100682.22;4989675;28;20476;-57
2023/10/07 01:09:07;;;;;;;4.35;1.25;;;;;;;8.38;100.00;100677.88;5001661;28;20062;-57
2023/10/07 01:11:40;;;;;;;5.32;1.35;;;;;;;8.39;100.00;100679.63;4978580;28;20041;-59
2023/10/07 01:14:12;;;;;;;6.35;1.42;;;;;;;8.39;100.00;100692.66;4981722;28;20098;-61
2023/10/07 01:16:42;;;;;;;7.20;1.58;;;;;;;8.40;100.00;100681.41;4991484;28;20460;-59
2023/10/07 01:19:43;;;;;;;9.57;1.30;;;;;;;8.32;100.00;100675.31;4990444;28;20053;-60
2023/10/07 01:22:19;;;;;;;10.13;1.45;;;;;;;8.40;100.00;100707.44;4991281;28;20115;-57
2023/10/07 01:24:50;;;;;;;5.57;1.38;;;;;;;8.42;100.00;100705.72;5002527;28;20132;-57
2023/10/07 01:27:28;;;;;;;8.60;1.48;;;;;;;8.42;100.00;100705.72;4991301;28;20060;-58
2023/10/07 01:30:06;;;;;;;5.47;1.17;;;;;;;8.45;100.00;100705.69;5001893;28;20144;-57
2023/10/07 01:32:48;;;;;;;8.23;1.33;;;;;;;8.44;100.00;100709.19;4971850;28;20124;-59
2023/10/07 01:35:25;;;;;;;6.45;1.45;;;;;;;8.43;99.31;100707.44;4980805;28;20049;-60
2023/10/07 01:38:07;;;;;;;6.22;1.23;;;;;;;8.46;99.19;100707.41;5001773;28;20143;-59
2023/10/07 01:43:31;;;;;;;5.50;1.33;;;;;;;8.49;100.00;100712.66;4975770;28;20054;-59
2023/10/07 01:46:07;;;;;;;5.82;1.48;;;;;;;8.46;99.65;100717.84;5001467;28;20049;-58
2023/10/07 01:48:38;;;;;;;6.55;1.20;;;;;;;8.48;98.74;100729.13;4965349;28;20141;-57
2023/10/07 01:51:14;;;;;;;6.20;1.38;;;;;;;8.48;99.27;100731.72;4994005;28;20045;-57
2023/10/07 01:53:46;;;;;;;8.50;1.10;;;;;;;8.48;98.92;100725.66;5001151;28;20061;-61
2023/10/07 01:56:17;;;;;;;6.03;1.52;;;;;;;8.49;99.56;100722.22;4991049;28;20053;-58
2023/10/07 01:58:48;;;;;;;3.67;1.13;;;;;;;8.51;99.63;100725.66;5000395;28;20052;-58
2023/10/07 02:01:21;;;;;;;7.13;1.25;;;;;;;8.51;99.49;100725.66;4989708;28;20056;-59
2023/10/07 02:03:52;;;;;;;4.50;1.45;;;;;;;8.27;99.10;100682.25;5000767;28;20077;-59
2023/10/07 02:06:29;;;;;;;7.18;1.45;;;;;;;8.53;98.72;100730.00;4990821;28;20504;-59
2023/10/07 02:09:05;;;;;;;5.50;1.60;;;;;;;8.52;96.73;100733.47;5000872;28;20773;-57
2023/10/07 02:11:36;;;;;;;6.45;1.50;;;;;;;8.50;96.42;100750.84;4989981;28;20682;-59
2023/10/07 02:14:08;;;;;;;5.32;1.27;;;;;;;8.58;97.16;100741.28;5000383;28;20049;-60
2023/10/07 02:16:38;;;;;;;10.05;1.45;;;;;;;8.56;96.64;100750.84;4984647;28;20045;-59
2023/10/07 02:19:14;;;;;;;5.55;1.60;;;;;;;8.57;97.83;100752.56;4993763;28;20391;-60
2023/10/07 02:21:48;;;;;;;6.60;1.25;;;;;;;8.59;98.80;100747.38;5000466;28;20067;-58
2023/10/07 02:24:21;;;;;;;7.63;1.05;;;;;;;8.58;98.44;100743.00;4990699;28;20049;-59
2023/10/07 02:26:55;;;;;;;7.82;1.35;;;;;;;8.58;98.16;100759.50;5000973;28;20391;-59
2023/10/07 02:29:26;;;;;;;6.32;1.40;;;;;;;8.54;98.52;100755.19;4988735;28;20053;-59
2023/10/07 02:32:07;;;;;;;5.57;1.05;;;;;;;8.57;98.11;100760.38;5000487;28;20053;-61
2023/10/07 02:34:51;;;;;;;4.95;1.70;;;;;;;8.56;97.70;100761.28;4976985;28;20054;-59
2023/10/07 02:37:25;;;;;;;6.00;1.10;;;;;;;8.54;97.71;100757.78;4985151;28;20057;-58
2023/10/07 02:40:03;;;;;;;3.72;1.35;;;;;;;8.57;97.68;100773.41;4999869;28;20150;-61
2023/10/07 02:42:33;;;;;;;9.57;1.60;;;;;;;8.53;97.13;100766.47;4967827;28;20053;-58
2023/10/07 02:45:19;;;;;;;7.25;1.27;;;;;;;8.52;97.23;100764.72;4999919;28;20124;-60
2023/10/07 02:47:51;;;;;;;5.03;1.45;;;;;;;8.53;98.19;100770.81;5000937;28;20061;-59
2023/10/07 02:50:25;;;;;;;6.63;1.30;;;;;;;8.52;98.53;100769.94;4989737;28;21290;-58
2023/10/07 02:52:57;;;;;;;3.55;1.10;;;;;;;8.51;96.82;100783.84;4999691;28;20148;-59
2023/10/07 02:55:38;;;;;;;6.18;1.23;;;;;;;8.51;97.00;100783.84;4988411;28;20049;-61
2023/10/07 02:58:12;;;;;;;9.13;1.67;;;;;;;8.51;97.08;100770.81;4993410;28;20138;-58
2023/10/07 03:00:49;;;;;;;4.43;1.45;;;;;;;8.50;96.86;100776.88;4999124;28;20801;-61
2023/10/07 03:03:32;;;;;;;7.05;1.25;;;;;;;8.49;96.84;100774.28;4988996;28;20065;-58
2023/10/07 03:06:06;;;;;;;7.28;1.00;;;;;;;8.45;97.22;100763.00;4999063;28;20064;-59
2023/10/07 03:08:49;;;;;;;9.43;1.27;;;;;;;8.24;97.67;100750.81;4980746;28;20140;-60
2023/10/07 03:11:24;;;;;;;4.20;1.00;;;;;;;8.45;96.88;100777.75;4988678;28;20064;-59
2023/10/07 03:13:58;;;;;;;9.13;1.40;;;;;;;8.41;96.08;100774.25;4999282;28;20057;-60
2023/10/07 03:16:29;;;;;;;4.47;1.17;;;;;;;8.42;95.78;100783.84;4989145;28;20058;-60
2023/10/07 03:19:20;;;;;;;4.85;1.20;;;;;;;8.42;96.26;100786.44;4999099;28;20076;-60
2023/10/07 03:22:09;;;;;;;6.22;1.17;;;;;;;8.42;96.80;100783.84;4993840;28;20049;-59
2023/10/07 03:24:48;;;;;;;5.80;1.50;;;;;;;8.12;97.33;100737.78;4982468;28;20049;-58
2023/10/07 03:27:25;;;;;;;3.40;1.30;;;;;;;8.44;97.17;100787.31;4988478;28;20144;-61
2023/10/07 03:36:07;;;;;;;2.65;1.60;;;;;;;8.42;96.71;100799.47;4988434;28;20049;-60
2023/10/07 03:38:39;;;;;;;10.07;1.27;;;;;;;8.41;97.47;100790.78;4989275;28;20196;-59
2023/10/07 03:41:09;;;;;;;5.57;1.23;;;;;;;8.15;96.86;100749.03;4992635;28;20041;-58
2023/10/07 03:43:41;;;;;;;5.57;1.50;;;;;;;8.43;96.95;100789.03;5000037;28;20365;-59
2023/10/07 03:46:13;;;;;;;5.28;1.45;;;;;;;8.46;96.98;100800.31;4989220;28;20115;-58
2023/10/07 03:48:53;;;;;;;3.90;1.10;;;;;;;8.29;97.33;100771.66;4999643;28;20824;-59
2023/10/07 03:51:30;;;;;;;10.18;2.05;;;;;;;8.45;98.20;100802.06;4988755;28;20053;-57
2023/10/07 03:54:03;;;;;;;5.68;1.60;;;;;;;8.40;99.30;100803.78;4998969;28;20049;-59
2023/10/07 03:56:34;;;;;;;6.60;1.40;;;;;;;8.38;100.00;100808.09;4989237;28;20095;-58
2023/10/07 03:59:06;;;;;;;6.95;1.50;;;;;;;8.37;100.00;100803.75;4999364;28;20053;-60
2023/10/07 04:01:42;;;;;;;4.55;1.25;;;;;;;8.36;100.00;100815.03;4982182;28;20071;-58
2023/10/07 04:04:14;;;;;;;7.50;1.20;;;;;;;8.23;100.00;100792.44;4988730;28;20056;-59
2023/10/07 04:06:48;;;;;;;5.38;1.45;;;;;;;8.35;100.00;100816.75;4998912;28;20068;-58
2023/10/07 04:09:27;;;;;;;7.80;1.33;;;;;;;8.37;100.00;100811.56;4988561;28;20049;-59
2023/10/07 04:11:57;;;;;;;7.40;1.35;;;;;;;8.35;99.46;100814.16;4998514;28;20685;-59
2023/10/07 04:14:31;;;;;;;7.57;1.63;;;;;;;8.34;99.20;100824.59;4980726;28;20057;-61
2023/10/07 04:17:11;;;;;;;9.10;1.30;;;;;;;8.34;99.41;100822.00;4998884;28;20142;-59
2023/10/07 04:19:45;;;;;;;4.35;1.77;;;;;;;8.33;99.68;100825.44;4982859;28;20150;-62
2023/10/07 04:22:16;;;;;;;6.95;1.42;;;;;;;8.33;100.00;100826.31;4988615;28;20198;-61
2023/10/07 04:24:46;;;;;;;10.48;1.75;;;;;;;8.32;100.00;100828.94;4998958;28;20711;-59
2023/10/07 04:27:20;;;;;;;6.38;1.60;;;;;;;8.32;100.00;100831.53;4988152;28;20515;-60
2023/10/07 04:29:53;;;;;;;6.00;1.80;;;;;;;8.33;99.29;100841.94;4999347;28;20112;-60
2023/10/07 04:32:24;;;;;;;6.05;1.60;;;;;;;8.34;100.00;100837.63;4988140;28;20490;-60
2023/10/07 04:37:52;;;;;;;11.93;1.52;;;;;;;8.33;99.62;100838.47;4982349;28;20059;-60
2023/10/07 04:46:21;;;;;;;10.05;1.70;;;;;;;8.36;97.02;100846.28;4999603;28;20597;-58
2023/10/07 04:48:54;;;;;;;7.95;1.58;;;;;;;8.24;97.35;100835.81;5002169;28;20140;-59
2023/10/07 04:51:46;;;;;;;4.75;1.60;;;;;;;8.36;95.55;100846.28;4991403;28;20064;-59
2023/10/07 04:54:22;;;;;;;8.05;1.55;;;;;;;8.36;97.21;100856.69;4991740;28;20057;-60
2023/10/07 04:56:54;;;;;;;5.72;1.40;;;;;;;8.34;96.48;100861.03;5002348;28;20157;-60
2023/10/07 04:59:25;;;;;;;10.63;1.85;;;;;;;8.36;96.63;100862.78;4991024;28;20092;-60
2023/10/07 05:02:01;;;;;;;6.85;1.85;;;;;;;8.38;96.02;100865.38;4999653;28;20054;-59
2023/10/07 05:04:32;;;;;;;7.78;1.80;;;;;;;8.36;95.08;100856.69;4989442;28;20057;-60
2023/10/07 05:07:04;;;;;;;8.20;1.58;;;;;;;8.51;94.99;100868.91;5001346;28;20176;-59
2023/10/07 05:09:35;;;;;;;5.15;1.48;;;;;;;8.58;94.62;100874.13;4991019;28;20061;-58
2023/10/07 05:12:06;;;;;;;5.28;1.50;;;;;;;8.67;94.89;100877.63;5001753;28;20053;-60
2023/10/07 05:14:36;;;;;;;4.88;1.40;;;;;;;8.73;93.92;100877.63;4991822;28;20050;-61
2023/10/07 05:17:11;;;;;;;4.32;1.35;;;;;;;8.82;94.38;100877.63;5001831;28;20127;-59
2023/10/07 05:19:43;;;;;;;7.88;1.30;;;;;;;8.91;94.18;100861.13;4985740;28;20134;-59
2023/10/07 05:22:18;;;;;;;6.05;1.80;;;;;;;9.11;93.52;100879.38;4991551;28;20060;-60
2023/10/07 05:24:56;;;;;;;11.35;2.45;;;;;;;9.26;92.73;100884.56;5000626;28;20939;-60
2023/10/07 05:27:27;;;;;;;8.95;1.83;;;;;;;9.36;90.88;100890.63;4990250;28;20042;-60
2023/10/07 05:29:57;;;;;;;6.55;1.80;;;;;;;9.37;90.85;100880.22;5000951;28;20076;-62
2023/10/07 05:32:35;;;;;;;5.88;2.33;;;;;;;9.49;89.80;100889.78;4990536;28;20053;-60
2023/10/07 05:35:06;;;;;;;8.13;1.80;;;;;;;9.55;88.21;100891.50;5000152;28;20356;-58
2023/10/07 05:37:37;;;;;;;6.10;1.60;;;;;;;9.55;87.82;100907.16;4989123;28;20081;-59
2023/10/07 05:40:13;;;;;;;10.65;1.80;;;;;;;9.53;86.61;100898.44;5000010;28;20148;-61
2023/10/07 05:42:45;;;;;;;5.30;1.40;;;;;;;9.55;88.60;100909.75;4983777;28;20053;-58
2023/10/07 05:45:16;;;;;;;5.05;1.40;;;;;;;9.32;87.38;100862.84;4990385;28;20139;-61
2023/10/07 05:47:50;;;;;;;6.22;1.55;;;;;;;9.44;86.73;100900.22;4999810;28;20148;-59
2023/10/07 05:50:22;;;;;;;5.32;1.40;;;;;;;9.42;87.82;100901.09;4990507;28;20045;-62
2023/10/07 05:52:52;;;;;;;9.43;2.05;;;;;;;9.40;87.79;100903.69;5001007;28;20310;-60
2023/10/07 05:55:23;;;;;;;4.28;1.33;;;;;;;9.36;86.27;100912.41;4990022;28;20052;-61
2023/10/07 05:57:55;;;;;;;2.78;1.20;;;;;;;9.33;86.73;100916.72;4999517;28;20545;-60
2023/10/07 06:00:25;;;;;;;5.63;1.40;;;;;;;9.35;87.30;100925.44;4989815;28;20479;-59
2023/10/07 06:02:59;;;;;;;6.47;1.92;;;;;;;9.36;86.93;100917.63;5000775;28;20403;-61
2023/10/07 06:05:29;;;;;;;6.97;1.50;;;;;;;9.32;85.74;100928.91;4989949;28;20064;-62
2023/10/07 06:08:00;;;;;;;3.97;1.33;;;;;;;9.28;85.18;100924.56;5000250;28;20054;-60
2023/10/07 06:10:33;;;;;;;5.18;2.00;;;;;;;9.26;86.04;100928.91;4987652;28;20148;-60
2023/10/07 06:13:08;;;;;;;4.75;1.50;;;;;;;9.27;86.06;100943.69;4999649;28;20487;-60
2023/10/07 06:15:38;;;;;;;6.80;1.60;;;;;;;9.28;84.97;100953.25;4981573;28;20080;-63
2023/10/07 06:18:11;;;;;;;9.13;1.58;;;;;;;9.30;85.26;100954.13;4994636;28;20059;-64
2023/10/07 06:20:46;;;;;;;7.82;2.03;;;;;;;9.22;83.90;100942.81;4999589;28;20067;-63
2023/10/07 06:23:18;;;;;;;4.82;1.58;;;;;;;9.24;84.21;100954.13;4988758;28;20048;-60
2023/10/07 06:25:50;;;;;;;3.25;1.15;;;;;;;9.11;84.13;100947.16;5000047;28;20487;-59
2023/10/07 06:28:29;;;;;;;3.40;1.60;;;;;;;9.19;84.51;100963.69;4990007;28;20060;-60
2023/10/07 06:31:10;;;;;;;8.25;1.20;;;;;;;9.16;84.20;100974.09;4999190;28;20116;-61
2023/10/07 06:33:44;;;;;;;5.68;2.47;;;;;;;9.14;84.06;100962.81;4961792;28;20046;-61
2023/10/07 06:36:15;;;;;;;6.07;1.70;;;;;;;9.17;84.44;100974.09;4963971;28;20151;-61
2023/10/07 06:38:52;;;;;;;3.97;1.60;;;;;;;9.20;85.57;100986.28;5000063;28;20147;-58
2023/10/07 06:41:23;;;;;;;6.00;2.35;;;;;;;9.14;83.31;100978.47;4989168;28;20053;-60
2023/10/07 06:43:59;;;;;;;8.05;2.00;;;;;;;9.14;82.75;100983.69;4996812;28;20061;-57
2023/10/07 06:46:31;;;;;;;5.38;1.90;;;;;;;9.09;82.25;100986.28;4980596;28;20051;-58
2023/10/07 06:49:03;;;;;;;5.30;1.95;;;;;;;9.06;83.04;100996.66;4983009;28;20045;-60
2023/10/07 06:51:36;;;;;;;4.55;1.80;;;;;;;9.01;82.31;100988.88;4988460;28;20061;-60
2023/10/07 06:54:09;;;;;;;3.47;1.60;;;;;;;8.96;80.85;100990.59;4996729;28;20049;-60
2023/10/07 06:56:40;;;;;;;4.70;1.80;;;;;;;8.91;79.95;100987.13;4997462;28;20057;-60
2023/10/07 06:59:13;;;;;;;3.83;1.90;;;;;;;8.88;81.05;101009.69;4979499;28;20057;-65
2023/10/07 07:01:52;;;;;;;6.88;1.77;;;;;;;8.76;81.65;100994.88;4999802;28;20080;-59
2023/10/07 07:04:25;;;;;;;4.15;1.60;;;;;;;8.70;79.78;101003.56;4988374;28;20369;-61
2023/10/07 07:07:11;;;;;;;6.57;2.28;;;;;;;8.74;80.65;101009.66;4999580;28;20750;-60
2023/10/07 07:09:58;;;;;;;5.63;2.58;;;;;;;8.69;80.34;101021.81;4982571;28;20072;-62
2023/10/07 07:12:28;;;;;;;4.22;2.13;;;;;;;8.67;80.80;101028.75;4989610;28;20063;-59
2023/10/07 07:15:04;;;;;;;6.15;2.80;;;;;;;8.62;81.60;101031.31;4993907;28;20479;-59
2023/10/07 07:17:43;;;;;;;8.05;2.42;;;;;;;8.56;81.83;101026.97;4987049;28;20045;-58
2023/10/07 07:20:33;;;;;;;4.45;2.42;;;;;;;8.50;82.71;101042.56;4988209;28;20144;-60
2023/10/07 07:23:09;;;;;;;6.47;2.50;;;;;;;8.17;83.13;101002.44;4996232;28;20056;-57
2023/10/07 07:25:41;;;;;;;3.53;1.80;;;;;;;8.37;83.31;101045.94;4985204;28;20543;-57
2023/10/07 07:28:10;;;;;;;6.60;1.58;;;;;;;8.30;84.47;101049.38;4988472;28;20053;-58
2023/10/07 07:30:43;;;;;;;6.18;1.95;;;;;;;8.24;85.10;101054.53;4998331;28;20464;-59
2023/10/07 07:33:15;;;;;;;3.97;1.42;;;;;;;7.52;84.68;100943.94;4987043;28;20057;-60
2023/10/07 07:35:56;;;;;;;6.95;1.80;;;;;;;8.14;85.70;101054.47;4998681;28;20272;-58
2023/10/07 07:38:43;;;;;;;4.03;1.60;;;;;;;8.11;86.19;101059.69;4989183;28;20050;-60
2023/10/07 07:44:00;;;;;;;7.03;1.80;;;;;;;8.00;87.92;101066.53;4998561;28;20822;-59
2023/10/07 07:46:31;;;;;;;6.40;1.80;;;;;;;7.97;88.64;101072.59;4987357;28;20936;-60
2023/10/07 07:49:06;;;;;;;4.45;1.58;;;;;;;7.93;88.90;101075.16;4998109;28;20080;-59
2023/10/07 07:51:40;;;;;;;4.63;1.58;;;;;;;7.89;89.54;101070.81;4988665;28;20061;-60
2023/10/07 07:54:11;;;;;;;10.38;2.10;;;;;;;7.85;89.90;101076.84;4988463;28;20060;-59
2023/10/07 07:56:42;;;;;;;3.88;1.52;;;;;;;7.81;90.85;101080.25;4997580;28;20053;-58
2023/10/07 07:59:14;;;;;;;6.05;1.90;;;;;;;7.78;91.51;101081.97;4987271;28;20041;-59
2023/10/07 08:01:50;;;;;;;4.70;1.73;;;;;;;7.73;92.13;101083.66;4998065;28;20045;-60
2023/10/07 08:07:11;;;;;;;8.57;2.35;;;;;;;7.57;93.10;101087.00;4997226;28;20148;-59
2023/10/07 08:09:43;;;;;;;9.50;2.22;;;;;;;7.55;93.70;101086.13;4980412;28;20534;-59
2023/10/07 08:12:18;;;;;;;6.10;2.03;;;;;;;7.54;94.03;101095.66;4988335;28;20132;-60
2023/10/07 08:14:50;;;;;;;8.13;2.33;;;;;;;7.28;94.29;101053.78;4998803;28;20053;-59
2023/10/07 08:17:25;;;;;;;5.10;2.00;;;;;;;7.47;94.79;101106.84;4988314;28;20041;-60
2023/10/07 08:19:57;;;;;;;6.18;1.88;;;;;;;7.45;95.09;101113.75;5002623;28;20362;-59
2023/10/07 08:22:30;;;;;;;10.00;5.57;;;;;;;7.45;95.82;101112.91;4991520;28;20059;-60
2023/10/07 08:25:00;;;;;;;32.03;17.85;;;;;;;7.44;95.89;101121.53;5000437;28;20085;-60
2023/10/07 08:27:49;;;;;;;8.18;3.35;;;;;;;7.41;96.76;101131.91;4990958;28;20064;-60
2023/10/07 08:30:37;;;;;;;41.38;22.60;;;;;;;7.29;97.18;101125.75;4992331;28;20045;-59
2023/10/07 08:33:12;;;;;;;30.85;18.85;;;;;;;7.23;97.88;101143.84;4998706;28;20069;-60
2023/10/07 08:35:47;;;;;;;28.77;14.60;;;;;;;7.16;98.41;101138.56;4972000;28;20049;-60
2023/10/07 08:38:29;;;;;;;13.25;5.07;;;;;;;6.91;99.19;101115.78;4977976;28;20072;-59
2023/10/07 08:41:07;;;;;;;8.70;3.25;;;;;;;6.91;100.00;101146.06;4996588;28;20493;-59
2023/10/07 08:43:43;;;;;;;9.20;5.22;;;;;;;6.72;100.00;101150.16;4989683;28;20115;-60
2023/10/07 08:46:17;;;;;;;11.93;5.28;;;;;;;6.54;100.00;101144.69;4990036;28;20071;-60
2023/10/07 08:48:56;;;;;;;9.38;3.28;;;;;;;6.41;100.00;101149.69;5001134;28;20056;-60
2023/10/07 08:51:27;;;;;;;;;;;;;;;6.29;100.00;101153.84;4991459;28;20479;-59
2023/10/07 08:54:07;;;;;;;16.13;7.50;;;;;;;6.16;100.00;101152.78;5001873;28;19929;-58
2023/10/07 08:56:41;;;;;;;21.60;11.40;;;;;;;5.77;100.00;101112.34;4983351;28;20065;-59
2023/10/07 08:59:14;;;;;;;53.45;26.30;;;;;;;5.72;100.00;101117.44;4991643;28;20041;-60
2023/10/07 09:01:46;;;;;;;30.88;14.10;;;;;;;5.89;100.00;101159.25;5001631;28;20085;-60
2023/10/07 09:04:18;;;;;;;7.93;4.70;;;;;;;5.81;100.00;101160.81;4990045;28;20057;-60
2023/10/07 09:06:50;;;;;;;7.72;4.70;;;;;;;5.77;100.00;101164.22;5001011;28;20046;-61
2023/10/07 09:09:37;;;;;;;11.73;6.00;;;;;;;5.77;100.00;101169.41;4990562;28;20523;-60
2023/10/07 09:12:14;;;;;;;13.93;9.50;;;;;;;5.78;100.00;101168.53;5001559;28;20468;-61
2023/10/07 09:14:51;;;;;;;24.50;14.45;;;;;;;5.80;100.00;101169.44;4985264;28;20144;-61
2023/10/07 09:17:23;;;;;;;29.58;16.95;;;;;;;5.80;100.00;101182.41;4992454;28;20053;-59
2023/10/07 09:19:58;;;;;;;35.05;24.38;;;;;;;5.81;100.00;101191.94;5001407;28;20049;-60
2023/10/07 09:22:34;;;;;;;36.97;23.27;;;;;;;5.86;100.00;101190.28;4991728;28;20063;-61
2023/10/07 09:25:16;;;;;;;28.73;19.13;;;;;;;5.88;100.00;101188.59;5001902;28;20056;-59
2023/10/07 09:27:54;;;;;;;22.05;12.57;;;;;;;5.84;100.00;101197.16;4990826;28;20483;-61
2023/10/07 09:30:44;;;;;;;22.80;10.25;;;;;;;5.77;100.00;101197.94;4990426;28;20096;-60
2023/10/07 09:33:17;;;;;;;14.45;9.00;;;;;;;5.71;100.00;101206.44;4990007;28;20053;-59
2023/10/07 09:36:21;;;;;;;15.35;11.27;;;;;;;5.71;100.00;101201.25;4999372;28;20248;-61
2023/10/07 09:38:41;;;;;;;18.95;12.15;;;;;;;5.73;100.00;101204.75;4972198;28;20098;-59
2023/10/07 09:41:24;;;;;;;40.10;27.30;;;;;;;5.80;100.00;101210.94;4981153;28;20085;-60
2023/10/07 09:43:56;;;;;;;16.48;9.43;;;;;;;5.82;100.00;101222.22;5001704;28;20828;-59
2023/10/07 09:46:27;;;;;;;19.40;11.18;;;;;;;5.74;100.00;101205.63;4990136;28;20111;-60
2023/10/07 09:49:01;;;;;;;10.32;7.20;;;;;;;5.83;100.00;101216.19;4998268;28;20076;-59
2023/10/07 09:51:41;;;;;;;28.33;20.73;;;;;;;5.81;100.00;101210.09;4988616;28;20060;-61
2023/10/07 09:54:36;;;;;;;14.15;7.13;;;;;;;5.84;100.00;101212.72;4988236;28;20041;-60
2023/10/07 09:57:24;;;;;;;9.18;3.03;;;;;;;5.92;100.00;101221.53;4998646;28;20064;-59
2023/10/07 10:00:37;;;;;;;16.92;8.30;;;;;;;5.95;100.00;101221.63;4999879;28;20376;-61
2023/10/07 10:03:13;;;;;;;15.30;9.77;;;;;;;5.95;100.00;101237.19;4998839;28;20472;-60
2023/10/07 10:05:57;;;;;;;18.48;11.52;;;;;;;5.90;100.00;101238.78;4982224;28;20056;-60
2023/10/07 10:08:45;;;;;;;18.95;11.40;;;;;;;5.83;100.00;101236.94;4989310;28;20127;-58
2023/10/07 10:11:30;;;;;;;13.82;8.55;;;;;;;5.81;100.00;101238.63;4989611;28;20050;-59
2023/10/07 10:14:16;;;;;;;7.43;3.80;;;;;;;5.87;100.00;101249.13;4996298;28;20147;-60
2023/10/07 10:16:52;;;;;;;11.10;6.97;;;;;;;5.91;100.00;101245.72;5000684;28;20072;-59
2023/10/07 10:19:28;;;;;;;20.98;14.40;;;;;;;5.97;100.00;101251.06;4989197;28;20053;-60
2023/10/07 10:22:11;;;;;;;5.93;2.88;;;;;;;6.00;100.00;101258.91;4999056;28;20072;-59
2023/10/07 10:24:45;;;;;;;11.65;3.03;;;;;;;5.83;100.00;101234.34;4979487;28;20145;-58
2023/10/07 10:27:18;;;;;;;9.27;5.25;;;;;;;6.01;100.00;101258.03;4987579;28;20068;-59
2023/10/07 10:29:55;;;;;;;9.00;3.35;;;;;;;6.11;100.00;101259.09;4999534;28;20136;-59
2023/10/07 10:32:29;;;;;;;7.22;2.70;;;;;;;6.04;100.00;101258.13;4980228;28;20583;-59
2023/10/07 10:35:06;;;;;;;8.45;3.72;;;;;;;6.15;100.00;101265.22;4980296;28;20396;-60
2023/10/07 10:37:37;;;;;;;5.82;3.00;;;;;;;6.19;100.00;101277.38;4973540;28;20096;-60
2023/10/07 10:40:17;;;;;;;6.30;2.75;;;;;;;6.22;100.00;101282.66;4989632;28;20168;-60
2023/10/07 10:42:49;;;;;;;;;;;;;;;6.25;100.00;101290.50;4983896;28;20057;-59
2023/10/07 10:45:24;;;;;;;6.30;2.97;;;;;;;6.00;100.00;101251.13;4988958;28;20365;-58
2023/10/07 10:47:56;;;;;;;8.75;4.93;;;;;;;6.34;100.00;101303.63;4999192;28;20057;-58
2023/10/07 10:50:28;;;;;;;11.18;4.82;;;;;;;6.42;100.00;101295.97;4989844;28;20138;-58
2023/10/07 10:53:00;;;;;;;10.52;5.25;;;;;;;6.17;100.00;101242.78;4999378;28;20077;-60
2023/10/07 10:55:37;;;;;;;7.70;3.45;;;;;;;6.51;100.00;101292.66;4988802;28;20384;-60
2023/10/07 10:58:17;;;;;;;9.77;4.45;;;;;;;6.58;100.00;101302.28;4999203;28;20053;-58
2023/10/07 11:00:51;;;;;;;7.70;3.75;;;;;;;6.62;100.00;101299.78;4998699;28;20056;-59
2023/10/07 11:03:22;;;;;;;8.27;4.53;;;;;;;6.69;100.00;101303.38;4988658;28;20781;-60
2023/10/07 11:05:53;;;;;;;9.55;3.78;;;;;;;6.75;100.00;101306.03;4999242;28;20053;-59
2023/10/07 11:08:26;;;;;;;6.90;3.72;;;;;;;6.79;100.00;101306.94;4989310;28;20132;-59
2023/10/07 11:10:58;;;;;;;10.85;4.30;;;;;;;6.84;100.00;101301.00;4999121;28;20057;-58
2023/10/07 11:13:31;;;;;;;7.55;3.13;;;;;;;6.83;100.00;101304.44;4988612;28;20212;-58
2023/10/07 11:16:09;;;;;;;8.55;4.20;;;;;;;6.81;100.00;101311.31;4999148;28;20148;-59
2023/10/07 11:18:45;;;;;;;13.65;6.88;;;;;;;6.74;100.00;101314.69;4988847;28;20053;-59
2023/10/07 11:21:18;;;;;;;9.25;4.45;;;;;;;6.69;100.00;101316.34;4988926;28;20405;-59
2023/10/07 11:23:49;;;;;;;13.02;5.80;;;;;;;6.65;100.00;101318.00;4998743;28;20158;-59
2023/10/07 11:26:19;;;;;;;11.50;5.85;;;;;;;6.62;100.00;101323.16;4989231;28;20111;-60
2023/10/07 11:28:51;;;;;;;11.50;4.55;;;;;;;6.61;100.00;101323.13;4999153;28;20128;-59
2023/10/07 11:31:31;;;;;;;15.32;4.50;;;;;;;6.59;100.00;101330.00;4974550;28;20107;-60
2023/10/07 11:34:04;;;;;;;8.20;3.90;;;;;;;6.59;100.00;101330.00;4987842;28;20053;-58
2023/10/07 11:36:45;;;;;;;9.07;4.70;;;;;;;6.54;100.00;101322.16;4972885;28;20053;-59
2023/10/07 11:39:16;;;;;;;14.57;5.68;;;;;;;6.50;100.00;101329.88;4987801;28;20115;-60
2023/10/07 11:41:47;;;;;;;8.20;4.68;;;;;;;6.47;100.00;101330.69;4997344;28;20133;-60
2023/10/07 11:44:19;;;;;;;9.60;3.90;;;;;;;6.42;100.00;101333.19;4989391;28;20055;-60
2023/10/07 11:46:51;;;;;;;7.90;3.80;;;;;;;6.32;100.00;101336.47;4996761;28;20055;-60
2023/10/07 11:49:22;;;;;;;19.50;12.88;;;;;;;6.16;100.00;101339.63;4978723;28;20041;-60
2023/10/07 11:51:54;;;;;;;15.13;9.93;;;;;;;6.01;100.00;101346.25;5002855;28;20457;-60
2023/10/07 11:54:24;;;;;;;7.00;4.07;;;;;;;5.90;100.00;101352.94;4995671;28;20057;-61
2023/10/07 11:56:54;;;;;;;10.00;3.47;;;;;;;5.88;100.00;101351.16;5005676;28;20455;-60
2023/10/07 11:59:25;;;;;;;12.48;3.72;;;;;;;5.82;100.00;101350.19;4995619;28;20384;-60
2023/10/07 12:01:58;;;;;;;9.70;3.10;;;;;;;5.77;100.00;101363.91;5005268;28;20053;-61
2023/10/07 12:04:29;;;;;;;10.27;3.70;;;;;;;5.71;100.00;101367.22;4995222;28;20179;-59
2023/10/07 12:07:00;;;;;;;15.23;7.85;;;;;;;5.66;100.00;101373.16;5004896;28;20140;-59
2023/10/07 12:09:30;;;;;;;24.70;10.98;;;;;;;5.65;100.00;101366.25;4994289;28;20050;-59
2023/10/07 12:12:02;;;;;;;8.85;6.18;;;;;;;5.58;100.00;101371.28;5004891;28;20045;-60
2023/10/07 12:14:33;;;;;;;10.57;4.88;;;;;;;5.46;100.00;101364.94;4995114;28;20152;-60
2023/10/07 12:17:05;;;;;;;5.78;3.80;;;;;;;5.47;100.00;101367.59;5004897;28;21264;-60
2023/10/07 12:19:36;;;;;;;5.50;3.33;;;;;;;5.44;100.00;101372.69;4978360;28;21245;-59
2023/10/07 12:22:06;;;;;;;6.75;3.40;;;;;;;5.41;100.00;101372.63;4991338;28;20064;-60
2023/10/07 12:24:40;;;;;;;9.88;4.22;;;;;;;5.37;100.00;101381.19;4987644;28;20053;-60
2023/10/07 12:27:10;;;;;;;13.23;5.30;;;;;;;5.33;100.00;101379.34;4994137;28;20049;-59
2023/10/07 12:29:41;;;;;;;11.68;6.38;;;;;;;5.33;100.00;101384.53;5004460;28;20471;-59